^^
B2 Weather Station Historical Data
Daily Summary for December 15, 2018 Units:  English    Metric   Both
Daily Weekly Monthly Yearly Custom
  High: Low: Average:
Temperature: 49.7 °F 32.2 °F 37.1 °F
Dew Point: 39.5 °F 30.8 °F 33.9 °F
Humidity: 95% 63% 89%
Wind Speed: 16.1mph 0mph 8.2mph
Wind Gust: 13.3mph - -
Wind- - SE
Pressure: 30.16 in 30.09 in -
Precipitation: 0 in    
Historical Graphs
 
 
Tabular Data for December 15, 2018
Time Temperature Dew Point Pressure Wind Wind Speed Wind Gust Humidity Rainfall Rate (Hourly) solar
00:04 33.1 °F 31.8 °F 30.16 in NNE 4.6 mph 4.1 mph 95% 0 in 0.00 W/m2
00:09 33 °F 31.7 °F 30.16 in NNE 6 mph 5 mph 95% 0 in 0.00 W/m2
00:14 32.9 °F 31.6 °F 30.16 in North 6.9 mph 5.1 mph 95% 0 in 0.00 W/m2
00:19 32.9 °F 31.6 °F 30.16 in NNE 6.9 mph 5.1 mph 95% 0 in 0.00 W/m2
00:24 33 °F 31.7 °F 30.15 in North 6 mph 5 mph 95% 0 in 0.00 W/m2
00:29 32.9 °F 31.6 °F 30.15 in NNE 6 mph 5.7 mph 95% 0 in 0.00 W/m2
00:34 32.9 °F 31.6 °F 30.15 in NNW 8.1 mph 5.4 mph 95% 0 in 0.00 W/m2
00:39 32.8 °F 31.5 °F 30.15 in North 6.9 mph 5.3 mph 95% 0 in 0.00 W/m2
00:44 32.7 °F 31.4 °F 30.15 in North 6.9 mph 5.4 mph 95% 0 in 0.00 W/m2
00:49 32.7 °F 31.4 °F 30.15 in North 6.9 mph 4.7 mph 95% 0 in 0.00 W/m2
00:54 32.5 °F 31.2 °F 30.16 in NNE 4.6 mph 3.8 mph 95% 0 in 0.00 W/m2
00:59 32.3 °F 31 °F 30.16 in NNE 4.6 mph 3.6 mph 95% 0 in 0.00 W/m2
01:04 32.2 °F 30.9 °F 30.16 in NNE 4.6 mph 4 mph 95% 0 in 0.00 W/m2
01:09 32.9 °F 31.6 °F 30.15 in NNE 11 mph 8.6 mph 95% 0 in 0.00 W/m2
01:14 33.2 °F 31.9 °F 30.15 in NNE 11.5 mph 8.8 mph 95% 0 in 0.00 W/m2
01:19 33.4 °F 32.1 °F 30.16 in NNE 11.5 mph 9.5 mph 95% 0 in 0.00 W/m2
01:24 33.5 °F 32.2 °F 30.15 in NNE 10.4 mph 7.6 mph 95% 0 in 0.00 W/m2
01:29 33.5 °F 32.2 °F 30.15 in NE 8.1 mph 6.8 mph 95% 0 in 0.00 W/m2
01:34 33.5 °F 32.2 °F 30.16 in NNE 9.2 mph 5.8 mph 95% 0 in 0.00 W/m2
01:39 33.5 °F 32.2 °F 30.16 in NNE 8.1 mph 7.6 mph 95% 0 in 0.00 W/m2
01:44 33.5 °F 32.2 °F 30.16 in NNE 9.2 mph 6.3 mph 95% 0 in 0.00 W/m2
01:49 33.5 °F 32.2 °F 30.16 in NE 9.2 mph 6.2 mph 95% 0 in 0.00 W/m2
01:54 33.4 °F 32.1 °F 30.16 in NNE 9 mph 7.1 mph 95% 0 in 0.00 W/m2
01:59 33.4 °F 32.1 °F 30.16 in NE 6.9 mph 4.8 mph 95% 0 in 0.00 W/m2
02:04 33.4 °F 32.1 °F 30.16 in NNE 10.4 mph 5.8 mph 95% 0 in 0.00 W/m2
02:09 33.4 °F 32.1 °F 30.16 in NNE 11.5 mph 7.2 mph 95% 0 in 0.00 W/m2
02:14 33.5 °F 32.2 °F 30.16 in NNE 11.5 mph 8.2 mph 95% 0 in 0.00 W/m2
02:19 33.6 °F 32.3 °F 30.16 in NE 11.5 mph 7.3 mph 95% 0 in 0.00 W/m2
02:24 33.7 °F 32.4 °F 30.16 in NE 5.8 mph 4.5 mph 95% 0 in 0.00 W/m2
02:29 33.7 °F 32.4 °F 30.16 in NNE 6.9 mph 4.8 mph 95% 0 in 0.00 W/m2
02:34 33.7 °F 32.4 °F 30.15 in NNE 5.8 mph 4.7 mph 95% 0 in 0.00 W/m2
02:39 33.6 °F 32.3 °F 30.15 in NNE 5 mph 4.9 mph 95% 0 in 0.00 W/m2
02:45 33.7 °F 32.4 °F 30.15 in NNE 5.8 mph 4 mph 95% 0 in 0.00 W/m2
02:49 33.8 °F 32.5 °F 30.15 in NE 8.1 mph 6.6 mph 95% 0 in 0.00 W/m2
02:54 33.9 °F 32.6 °F 30.15 in NNE 5.8 mph 3.7 mph 95% 0 in 0.00 W/m2
02:59 33.9 °F 32.6 °F 30.14 in North 5.8 mph 5.1 mph 95% 0 in 0.00 W/m2
03:04 33.7 °F 32.4 °F 30.14 in North 5.8 mph 5.2 mph 95% 0 in 0.00 W/m2
03:09 33.6 °F 32.3 °F 30.14 in North 8.1 mph 6.1 mph 95% 0 in 0.00 W/m2
03:14 33.5 °F 32.2 °F 30.14 in North 11 mph 8 mph 95% 0 in 0.00 W/m2
03:19 33.7 °F 32.4 °F 30.14 in North 9.2 mph 7.2 mph 95% 0 in 0.00 W/m2
03:24 33.6 °F 32.3 °F 30.14 in NNE 9 mph 5.5 mph 95% 0 in 0.00 W/m2
03:29 33.6 °F 32.3 °F 30.14 in North 9.2 mph 6.5 mph 95% 0 in 0.00 W/m2
03:34 33.6 °F 32.3 °F 30.15 in NNE 9.2 mph 7.2 mph 95% 0 in 0.00 W/m2
03:39 33.7 °F 32.4 °F 30.14 in NNE 9.2 mph 8 mph 95% 0 in 0.00 W/m2
03:44 33.7 °F 32.4 °F 30.14 in NNE 9.2 mph 7.2 mph 95% 0 in 0.00 W/m2
03:49 33.7 °F 32.4 °F 30.14 in NNE 9.2 mph 6.1 mph 95% 0 in 0.00 W/m2
03:54 33.7 °F 32.4 °F 30.14 in NNE 8.1 mph 6.3 mph 95% 0 in 0.00 W/m2
03:59 33.7 °F 32.4 °F 30.14 in NNE 9.2 mph 5.8 mph 95% 0 in 0.00 W/m2
04:04 33.7 °F 32.4 °F 30.14 in NNE 8.1 mph 4 mph 95% 0 in 0.00 W/m2
04:09 33.7 °F 32.4 °F 30.14 in NNE 11.5 mph 6.6 mph 95% 0 in 0.00 W/m2
04:14 33.7 °F 32.4 °F 30.14 in North 11.5 mph 6.7 mph 95% 0 in 0.00 W/m2
04:19 33.4 °F 32.1 °F 30.13 in NNE 6.9 mph 4.9 mph 95% 0 in 0.00 W/m2
04:24 33.2 °F 31.9 °F 30.14 in NNE 6 mph 4.6 mph 95% 0 in 0.00 W/m2
04:29 33 °F 31.7 °F 30.14 in North 6.9 mph 4.5 mph 95% 0 in 0.00 W/m2
04:34 33 °F 31.7 °F 30.14 in NNE 5.8 mph 3.9 mph 95% 0 in 0.00 W/m2
04:39 32.9 °F 31.6 °F 30.14 in NNE 4.6 mph 4.3 mph 95% 0 in 0.00 W/m2
04:44 32.8 °F 31.5 °F 30.14 in NNE 4.6 mph 3.6 mph 95% 0 in 0.00 W/m2
04:49 32.7 °F 31.4 °F 30.14 in North 4.6 mph 2.8 mph 95% 0 in 0.00 W/m2
04:54 32.6 °F 31.3 °F 30.14 in North 4.6 mph 3.2 mph 95% 0 in 0.00 W/m2
04:59 32.5 °F 31.2 °F 30.14 in North 4.6 mph 3.5 mph 95% 0 in 0.00 W/m2
05:04 32.5 °F 31.2 °F 30.14 in North 4.6 mph 4.2 mph 95% 0 in 0.00 W/m2
05:09 32.5 °F 31.2 °F 30.14 in North 6 mph 5.1 mph 95% 0 in 0.00 W/m2
05:14 32.5 °F 31.2 °F 30.13 in North 6 mph 5.1 mph 95% 0 in 0.00 W/m2
05:19 32.6 °F 31.3 °F 30.14 in North 5.8 mph 5.4 mph 95% 0 in 0.00 W/m2
05:24 32.6 °F 31.3 °F 30.14 in North 5.8 mph 5.1 mph 95% 0 in 0.00 W/m2
05:29 32.7 °F 31.4 °F 30.14 in North 9 mph 6.4 mph 95% 0 in 0.00 W/m2
05:34 32.8 °F 31.5 °F 30.14 in North 9.2 mph 6 mph 95% 0 in 0.00 W/m2
05:39 32.8 °F 31.5 °F 30.14 in North 9.2 mph 6.9 mph 95% 0 in 0.00 W/m2
05:44 32.9 °F 31.6 °F 30.14 in North 9.2 mph 6.9 mph 95% 0 in 0.00 W/m2
05:49 32.9 °F 31.6 °F 30.14 in North 8.1 mph 6.3 mph 95% 0 in 0.00 W/m2
05:54 33 °F 31.7 °F 30.14 in North 9.2 mph 7.4 mph 95% 0 in 0.00 W/m2
05:59 33.2 °F 31.9 °F 30.14 in North 9.2 mph 7.8 mph 95% 0 in 0.00 W/m2
06:05 33.2 °F 31.9 °F 30.14 in NNW 10.4 mph 8.1 mph 95% 0 in 0.00 W/m2
06:09 33.3 °F 32 °F 30.14 in North 9.2 mph 7.5 mph 95% 0 in 0.00 W/m2
06:14 33.2 °F 31.9 °F 30.14 in North 11.5 mph 8.5 mph 95% 0 in 0.00 W/m2
06:19 33.2 °F 31.9 °F 30.14 in North 11.5 mph 9.1 mph 95% 0 in 0.00 W/m2
06:24 33.3 °F 32 °F 30.14 in North 11.5 mph 9.4 mph 95% 0 in 0.00 W/m2
06:29 33.4 °F 32.1 °F 30.14 in North 13.8 mph 10.2 mph 95% 0 in 0.00 W/m2
06:34 33.6 °F 32.3 °F 30.14 in North 15 mph 11.3 mph 95% 0 in 0.00 W/m2
06:39 33.7 °F 32.4 °F 30.14 in North 16 mph 13.3 mph 95% 0 in 0.00 W/m2
06:44 33.9 °F 32.6 °F 30.14 in North 16.1 mph 11 mph 95% 0 in 0.00 W/m2
06:49 33.9 °F 32.6 °F 30.14 in North 16.1 mph 13 mph 95% 0 in 0.00 W/m2
06:54 34 °F 32.7 °F 30.14 in North 16.1 mph 10 mph 95% 0 in 0.00 W/m2
06:59 33.9 °F 32.6 °F 30.14 in North 12 mph 9.1 mph 95% 0 in 0.00 W/m2
07:04 33.9 °F 32.6 °F 30.14 in NNE 12.7 mph 10.2 mph 95% 0 in 0.00 W/m2
07:10 33.9 °F 32.6 °F 30.14 in NNE 11.5 mph 8.4 mph 95% 0 in 0.00 W/m2
07:14 33.9 °F 32.6 °F 30.14 in NE 11.5 mph 9.4 mph 95% 0 in 0.00 W/m2
07:19 34 °F 32.7 °F 30.14 in NNE 11.5 mph 9.7 mph 95% 0 in 5.00 W/m2
07:24 34.1 °F 32.8 °F 30.14 in NNE 16.1 mph 10 mph 95% 0 in 7.00 W/m2
07:29 34.2 °F 32.9 °F 30.14 in NE 11.5 mph 7.7 mph 95% 0 in 11.00 W/m2
07:34 34.2 °F 32.9 °F 30.15 in NNE 11.5 mph 7.9 mph 95% 0 in 16.00 W/m2
07:39 34.2 °F 32.9 °F 30.14 in NNE 12 mph 9.2 mph 95% 0 in 21.00 W/m2
07:45 34.3 °F 33 °F 30.15 in NNE 12.7 mph 8.1 mph 95% 0 in 26.00 W/m2
07:49 34.3 °F 33 °F 30.15 in NE 11.5 mph 8 mph 95% 0 in 30.00 W/m2
07:54 34.2 °F 32.9 °F 30.15 in NNE 11.5 mph 8 mph 95% 0 in 33.00 W/m2
07:59 34.1 °F 32.8 °F 30.15 in NNE 10.4 mph 6.9 mph 95% 0 in 35.00 W/m2
08:04 34.1 °F 32.8 °F 30.16 in NNE 8 mph 5.1 mph 95% 0 in 40.00 W/m2
08:09 34.1 °F 32.8 °F 30.16 in NE 10.4 mph 6.5 mph 95% 0 in 51.00 W/m2
08:14 34.1 °F 32.8 °F 30.16 in NE 10.4 mph 6 mph 95% 0 in 65.00 W/m2
08:19 34.3 °F 33 °F 30.16 in NNE 10 mph 8.2 mph 95% 0 in 91.00 W/m2
08:24 34.6 °F 33.3 °F 30.16 in NNE 9.2 mph 7.8 mph 95% 0 in 97.00 W/m2
08:29 34.8 °F 33.5 °F 30.16 in NNE 10.4 mph 8.3 mph 95% 0 in 90.00 W/m2
08:34 34.8 °F 33.5 °F 30.16 in NNE 12 mph 8 mph 95% 0 in 98.00 W/m2
08:39 34.9 °F 33.3 °F 30.16 in North 10.4 mph 8.2 mph 94% 0 in 121.00 W/m2
08:44 35.1 °F 33.5 °F 30.16 in NNE 11.5 mph 7.6 mph 94% 0 in 146.00 W/m2
08:49 35.5 °F 33.9 °F 30.16 in NNE 11.5 mph 7.6 mph 94% 0 in 137.00 W/m2
08:54 35.6 °F 34 °F 30.16 in NNE 11.5 mph 7.7 mph 94% 0 in 165.00 W/m2
08:59 35.9 °F 34.3 °F 30.16 in North 11.5 mph 6.2 mph 94% 0 in 199.00 W/m2
09:04 36.3 °F 34.7 °F 30.16 in NE 9.2 mph 6.7 mph 94% 0 in 193.00 W/m2
09:09 36.5 °F 34.7 °F 30.16 in NE 10.4 mph 4 mph 93% 0 in 176.00 W/m2
09:14 36.8 °F 35 °F 30.16 in North 10.4 mph 5.8 mph 93% 0 in 197.00 W/m2
09:19 37.1 °F 35.3 °F 30.16 in NE 8.1 mph 5.8 mph 93% 0 in 214.00 W/m2
09:24 37.5 °F 35.7 °F 30.16 in NNE 8.1 mph 5 mph 93% 0 in 230.00 W/m2
09:29 37.7 °F 35.6 °F 30.15 in NNE 10 mph 6.7 mph 92% 0 in 232.00 W/m2
09:34 38 °F 35.9 °F 30.15 in NNE 10.4 mph 6.1 mph 92% 0 in 255.00 W/m2
09:39 38.5 °F 36.4 °F 30.15 in NNE 5.8 mph 2.9 mph 92% 0 in 258.00 W/m2
09:44 38.8 °F 36.7 °F 30.15 in NNE 6.9 mph 2.5 mph 92% 0 in 294.00 W/m2
09:49 39.2 °F 36.8 °F 30.15 in NNE 8.1 mph 5.4 mph 91% 0 in 274.00 W/m2
09:54 39.3 °F 36.6 °F 30.16 in NNE 9.2 mph 6.8 mph 90% 0 in 287.00 W/m2
09:59 39.6 °F 36.9 °F 30.16 in NNE 9.2 mph 4.5 mph 90% 0 in 318.00 W/m2
10:04 40 °F 37.3 °F 30.16 in NE 9.2 mph 6.8 mph 90% 0 in 316.00 W/m2
10:09 40.3 °F 37.3 °F 30.16 in NNE 8.1 mph 4.6 mph 89% 0 in 322.00 W/m2
10:15 40.7 °F 37.7 °F 30.16 in NE 4.6 mph 2.1 mph 89% 0 in 322.00 W/m2
10:19 41.1 °F 38.1 °F 30.15 in NNE 9.2 mph 4.4 mph 89% 0 in 362.00 W/m2
10:24 41.6 °F 38.6 °F 30.16 in NNE 8.1 mph 4 mph 89% 0 in 387.00 W/m2
10:30 42 °F 38.4 °F 30.16 in NE 8.1 mph 6.7 mph 87% 0 in 411.00 W/m2
10:34 42.4 °F 38.5 °F 30.16 in NE 8.1 mph 5.3 mph 86% 0 in 403.00 W/m2
10:39 42.6 °F 38.4 °F 30.16 in ENE 5.8 mph 3.6 mph 85% 0 in 401.00 W/m2
10:44 42.9 °F 38.4 °F 30.16 in ENE 4.6 mph 3.9 mph 84% 0 in 374.00 W/m2
10:49 43.3 °F 39.1 °F 30.16 in ENE 3.5 mph   85% 0 in 392.00 W/m2
10:54 43.6 °F 38.8 °F 30.16 in NE 3.5 mph 2.6 mph 83% 0 in 406.00 W/m2
10:59 43.6 °F 38.2 °F 30.15 in NE 6.9 mph 3.1 mph 81% 0 in 403.00 W/m2
11:04 43.7 °F 38.3 °F 30.15 in NE 3.5 mph 2.4 mph 81% 0 in 411.00 W/m2
11:09 44 °F 38.9 °F 30.15 in ENE 3.5 mph 2.2 mph 82% 0 in 411.00 W/m2
11:15 44.2 °F 38.4 °F 30.14 in ENE 5 mph 3.1 mph 80% 0 in 431.00 W/m2
11:19 44.3 °F 38.5 °F 30.14 in ENE 3.5 mph 0.7 mph 80% 0 in 422.00 W/m2
11:24 44.7 °F 38.6 °F 30.14 in Calm     79% 0 in 436.00 W/m2
11:30 44.9 °F 38.5 °F 30.14 in Calm     78% 0 in 461.00 W/m2
11:34 45 °F 37.9 °F 30.14 in ENE 4.6 mph 2.2 mph 76% 0 in 339.00 W/m2
11:39 44.9 °F 38.1 °F 30.13 in NE 3.5 mph 2.8 mph 77% 0 in 373.00 W/m2
11:44 45 °F 38.2 °F 30.13 in NE 3.5 mph 1.6 mph 77% 0 in 399.00 W/m2
11:49 45.5 °F 38.7 °F 30.12 in NE 4.6 mph 3.3 mph 77% 0 in 403.00 W/m2
11:54 46 °F 38.9 °F 30.12 in NNE 6.9 mph 4.3 mph 76% 0 in 322.00 W/m2
11:59 46 °F 36.8 °F 30.12 in NE 11.5 mph 7.9 mph 70% 0 in 255.00 W/m2
12:04 45.8 °F 36.6 °F 30.12 in ENE 12.7 mph 8.5 mph 70% 0 in 197.00 W/m2
12:09 45.6 °F 36 °F 30.12 in ENE 13.8 mph 9.6 mph 69% 0 in 385.00 W/m2
12:14 45.9 °F 36.3 °F 30.12 in ENE 15 mph 9.8 mph 69% 0 in 311.00 W/m2
12:19 45.9 °F 36.3 °F 30.12 in ENE 11.5 mph 7.4 mph 69% 0 in 260.00 W/m2
12:24 46 °F 36.8 °F 30.11 in NE 10.4 mph 6.3 mph 70% 0 in 352.00 W/m2
12:29 46.4 °F 36.8 °F 30.11 in NE 11.5 mph 7.1 mph 69% 0 in 394.00 W/m2
12:34 46.9 °F 37.6 °F 30.11 in NE 11.5 mph 7.9 mph 70% 0 in 417.00 W/m2
12:40 47.2 °F 37.9 °F 30.11 in ENE 10.4 mph 7.3 mph 70% 0 in 408.00 W/m2
12:45 47.5 °F 38.6 °F 30.11 in NE 10 mph 6.7 mph 71% 0 in 390.00 W/m2
12:49 47.5 °F 37.5 °F 30.10 in ENE 11 mph 8.4 mph 68% 0 in 355.00 W/m2
12:54 47.6 °F 37.6 °F 30.10 in ENE 10.4 mph 8 mph 68% 0 in 438.00 W/m2
12:59 47.9 °F 37.5 °F 30.10 in NE 11.5 mph 7 mph 67% 0 in 425.00 W/m2
13:04 48.4 °F 38.3 °F 30.10 in ENE 10.4 mph 8 mph 68% 0 in 431.00 W/m2
13:09 48.7 °F 38.2 °F 30.10 in ENE 10.4 mph 6.8 mph 67% 0 in 397.00 W/m2
13:14 48.8 °F 37.9 °F 30.10 in ENE 13.8 mph 7 mph 66% 0 in 417.00 W/m2
13:19 49.3 °F 38.8 °F 30.10 in ENE 10.4 mph 7 mph 67% 0 in 422.00 W/m2
13:24 49.7 °F 38.8 °F 30.10 in ENE 11.5 mph 8.9 mph 66% 0 in 369.00 W/m2
13:29 49.6 °F 37.5 °F 30.10 in NE 12.7 mph 9.1 mph 63% 0 in 374.00 W/m2
13:34 49.4 °F 37.3 °F 30.10 in ENE 13 mph 9.3 mph 63% 0 in 302.00 W/m2
13:39 49.2 °F 37.5 °F 30.09 in NE 12 mph 9.2 mph 64% 0 in 315.00 W/m2
13:45 49.3 °F 38.4 °F 30.10 in NE 9.2 mph 7.2 mph 66% 0 in 343.00 W/m2
13:49 49.5 °F 38.6 °F 30.09 in NNE 12.7 mph 8.3 mph 66% 0 in 316.00 W/m2
13:54 49.2 °F 37.9 °F 30.09 in NE 12 mph 8.5 mph 65% 0 in 332.00 W/m2
13:59 49.1 °F 38.6 °F 30.09 in NNE 11.5 mph 8.1 mph 67% 0 in 304.00 W/m2
14:04 49 °F 38.9 °F 30.10 in North 12.7 mph 9.3 mph 68% 0 in 279.00 W/m2
14:09 48.8 °F 38.3 °F 30.10 in NE 11.5 mph 6.3 mph 67% 0 in 253.00 W/m2
14:14 48.7 °F 38.6 °F 30.10 in NNE 10.4 mph 7.7 mph 68% 0 in 272.00 W/m2
14:19 48.6 °F 38.9 °F 30.10 in NE 10.4 mph 6.1 mph 69% 0 in 220.00 W/m2
14:24 48.3 °F 38.2 °F 30.10 in NE 10.4 mph 8.3 mph 68% 0 in 211.00 W/m2
14:29 47.9 °F 38.2 °F 30.10 in NNE 11.5 mph 8.9 mph 69% 0 in 137.00 W/m2
14:34 47.5 °F 38.6 °F 30.10 in NNE 11.5 mph 6.9 mph 71% 0 in 153.00 W/m2
14:39 47 °F 38.1 °F 30.10 in NNE 11.5 mph 8.7 mph 71% 0 in 146.00 W/m2
14:45 46.7 °F 39.5 °F 30.10 in North 11.5 mph 9.5 mph 76% 0 in 163.00 W/m2
14:49 46.2 °F 39.1 °F 30.10 in NNE 12.7 mph 9.9 mph 76% 0 in 137.00 W/m2
14:54 45.5 °F 38.7 °F 30.11 in North 10.4 mph 9.5 mph 77% 0 in 144.00 W/m2
14:59 45.2 °F 39.1 °F 30.11 in North 11.5 mph 8.6 mph 79% 0 in 202.00 W/m2
15:04 45.3 °F 39.2 °F 30.11 in NNE 10.4 mph 9 mph 79% 0 in 193.00 W/m2
15:09 45.2 °F 38.7 °F 30.11 in North 12.7 mph 7.6 mph 78% 0 in 169.00 W/m2
15:14 44.9 °F 38.5 °F 30.11 in North 12.7 mph 10.1 mph 78% 0 in 153.00 W/m2
15:19 44.5 °F 37.7 °F 30.11 in North 12.7 mph 7.6 mph 77% 0 in 134.00 W/m2
15:24 44 °F 37.6 °F 30.11 in North 11.5 mph 8.2 mph 78% 0 in 90.00 W/m2
15:29 43.4 °F 37.3 °F 30.11 in North 11.5 mph 8.1 mph 79% 0 in 60.00 W/m2
15:34 43.2 °F 37.4 °F 30.11 in NNE 11.5 mph 7.5 mph 80% 0 in 44.00 W/m2
15:39 42.9 °F 37.2 °F 30.12 in NNE 10.4 mph 6.6 mph 80% 0 in 39.00 W/m2
15:44 42.5 °F 37.1 °F 30.12 in NNE 9.2 mph 6.1 mph 81% 0 in 37.00 W/m2
15:49 42.1 °F 37 °F 30.13 in NNE 11.5 mph 6.4 mph 82% 0 in 33.00 W/m2
15:54 41.9 °F 36.5 °F 30.13 in North 10.4 mph 8.5 mph 81% 0 in 30.00 W/m2
15:59 41.5 °F 36.4 °F 30.13 in NNE 10.4 mph 6.4 mph 82% 0 in 26.00 W/m2
16:04 41.1 °F 36.3 °F 30.13 in North 8.1 mph 4.9 mph 83% 0 in 23.00 W/m2
16:09 40.7 °F 36.2 °F 30.13 in North 10.4 mph 5.6 mph 84% 0 in 19.00 W/m2
16:15 40.3 °F 35.8 °F 30.13 in North 8.1 mph 6.1 mph 84% 0 in 18.00 W/m2
16:20 39.9 °F 35.5 °F 30.13 in NNW 9.2 mph 7.5 mph 84% 0 in 18.00 W/m2
16:24 39.6 °F 35.2 °F 30.14 in NNE 10.4 mph 7.3 mph 84% 0 in 18.00 W/m2
16:29 39.2 °F 35.1 °F 30.14 in NNE 5.8 mph 5.2 mph 85% 0 in 16.00 W/m2
16:34 38.8 °F 35 °F 30.13 in North 9.2 mph 6 mph 86% 0 in 11.00 W/m2
16:39 38.6 °F 34.8 °F 30.14 in NNE 10.4 mph 6.2 mph 86% 0 in 0.00 W/m2
16:44 38.3 °F 34.5 °F 30.14 in NNW 9 mph 6.5 mph 86% 0 in 0.00 W/m2
16:49 38.1 °F 34.3 °F 30.14 in North 10.4 mph 7.6 mph 86% 0 in 0.00 W/m2
16:54 37.9 °F 34.1 °F 30.14 in North 9.2 mph 7.2 mph 86% 0 in 0.00 W/m2
16:59 37.8 °F 34 °F 30.14 in NNW 6.9 mph 5.6 mph 86% 0 in 0.00 W/m2
17:04 37.5 °F 33.7 °F 30.15 in North 6.9 mph 4.5 mph 86% 0 in 0.00 W/m2
17:09 37.4 °F 33.9 °F 30.15 in North 9.2 mph 5.3 mph 87% 0 in 0.00 W/m2
17:14 37.2 °F 33.4 °F 30.14 in NNW 5.8 mph 4.7 mph 86% 0 in 0.00 W/m2
17:20 37 °F 33.5 °F 30.14 in North 8.1 mph 5.9 mph 87% 0 in 0.00 W/m2
17:24 36.8 °F 33.3 °F 30.15 in North 5.8 mph 4.6 mph 87% 0 in 0.00 W/m2
17:29 36.6 °F 33.1 °F 30.15 in North 8.1 mph 6.3 mph 87% 0 in 0.00 W/m2
17:34 36.4 °F 32.9 °F 30.14 in NNE 6.9 mph 4.1 mph 87% 0 in 0.00 W/m2
17:39 36.1 °F 32.9 °F 30.15 in North 5 mph 4.3 mph 88% 0 in 0.00 W/m2
17:45 35.8 °F 32.6 °F 30.15 in North 5.8 mph 5 mph 88% 0 in 0.00 W/m2
17:49 35.7 °F 32.8 °F 30.15 in North 6.9 mph 3.4 mph 89% 0 in 0.00 W/m2
17:54 35.6 °F 32.7 °F 30.15 in NNW 5 mph 4.7 mph 89% 0 in 0.00 W/m2
17:59 35.4 °F 32.5 °F 30.15 in NNW 7 mph 4.8 mph 89% 0 in 0.00 W/m2
18:04 35.2 °F 32.3 °F 30.15 in NNW 5.8 mph 4.6 mph 89% 0 in 0.00 W/m2
18:09 35.1 °F 32.2 °F 30.15 in North 6.9 mph 3.9 mph 89% 0 in 0.00 W/m2
18:14 35 °F 32.1 °F 30.15 in NNW 5.8 mph 4.7 mph 89% 0 in 0.00 W/m2
18:19 34.9 °F 32.3 °F 30.15 in North 6 mph 4.1 mph 90% 0 in 0.00 W/m2
18:24 34.9 °F 32.3 °F 30.15 in North 5.8 mph 3.8 mph 90% 0 in 0.00 W/m2
18:29 35 °F 32.4 °F 30.15 in North 8.1 mph 4.3 mph 90% 0 in 0.00 W/m2
18:34 35 °F 32.4 °F 30.14 in NNW 5.8 mph 4.4 mph 90% 0 in 0.00 W/m2
18:39 34.8 °F 32.2 °F 30.14 in North 6.9 mph 5.2 mph 90% 0 in 0.00 W/m2
18:44 34.6 °F 32 °F 30.15 in North 6.9 mph 4.9 mph 90% 0 in 0.00 W/m2
18:49 34.4 °F 31.8 °F 30.15 in NNE 4.6 mph 3.9 mph 90% 0 in 0.00 W/m2
18:54 34.2 °F 31.6 °F 30.15 in North 4 mph 3.8 mph 90% 0 in 0.00 W/m2
18:59 34.1 °F 31.7 °F 30.15 in NNW 5.8 mph 4.5 mph 91% 0 in 0.00 W/m2
19:04 34.4 °F 32 °F 30.16 in NNW 6 mph 5.3 mph 91% 0 in 0.00 W/m2
19:09 34.4 °F 32 °F 30.16 in North 5.8 mph 4.2 mph 91% 0 in 0.00 W/m2
19:14 34.3 °F 31.9 °F 30.16 in North 5.8 mph 4.7 mph 91% 0 in 0.00 W/m2
19:19 34.3 °F 31.9 °F 30.16 in NNW 5.8 mph 4.9 mph 91% 0 in 0.00 W/m2
19:24 34.3 °F 32.2 °F 30.16 in NNW 5.8 mph 4.4 mph 92% 0 in 0.00 W/m2
19:29 34.2 °F 31.8 °F 30.16 in NNW 5.8 mph 4.6 mph 91% 0 in 0.00 W/m2
19:35 34.1 °F 31.7 °F 30.16 in NNW 3.5 mph 2.6 mph 91% 0 in 0.00 W/m2
19:39 33.9 °F 31.6 °F 30.16 in NNW 5.8 mph 4 mph 91% 0 in 0.00 W/m2
19:44 33.8 °F 31.7 °F 30.15 in NNW 3.5 mph 3.4 mph 92% 0 in 0.00 W/m2
19:49 33.6 °F 31.5 °F 30.15 in North 5 mph 4.8 mph 92% 0 in 0.00 W/m2
19:54 33.6 °F 31.5 °F 30.14 in North 5.8 mph 3.5 mph 92% 0 in 0.00 W/m2
19:59 33.7 °F 31.6 °F 30.15 in North 4.6 mph 3.2 mph 92% 0 in 0.00 W/m2
20:04 33.7 °F 31.6 °F 30.14 in NNW 4.6 mph 3.7 mph 92% 0 in 0.00 W/m2
20:09 33.8 °F 31.7 °F 30.14 in NNW 5.8 mph 3.6 mph 92% 0 in 0.00 W/m2
20:14 33.8 °F 31.7 °F 30.14 in North 4.6 mph 3.4 mph 92% 0 in 0.00 W/m2
20:19 33.8 °F 32 °F 30.14 in North 8.1 mph 5.2 mph 93% 0 in 0.00 W/m2
20:24 34 °F 32.2 °F 30.14 in NNW 9.2 mph 6.2 mph 93% 0 in 0.00 W/m2
20:29 34.2 °F 32.4 °F 30.14 in NNW 6.9 mph 3.8 mph 93% 0 in 0.00 W/m2
20:34 33.9 °F 31.8 °F 30.14 in North 5 mph 4.6 mph 92% 0 in 0.00 W/m2
20:39 33.8 °F 32 °F 30.14 in North 4.6 mph 4.4 mph 93% 0 in 0.00 W/m2
20:44 33.9 °F 32.1 °F 30.14 in North 6.9 mph 4.5 mph 93% 0 in 0.00 W/m2
20:49 34 °F 32.2 °F 30.13 in North 5.8 mph 4.1 mph 93% 0 in 0.00 W/m2
20:54 34 °F 32.2 °F 30.13 in NNW 5.8 mph 3.7 mph 93% 0 in 0.00 W/m2
20:59 33.9 °F 32.1 °F 30.13 in NNW 5.8 mph 3.5 mph 93% 0 in 0.00 W/m2
21:04 33.8 °F 32 °F 30.13 in NNW 5.8 mph 4.8 mph 93% 0 in 0.00 W/m2
21:10 33.7 °F 31.9 °F 30.13 in NNW 4.6 mph 3.6 mph 93% 0 in 0.00 W/m2
21:14 33.7 °F 31.9 °F 30.13 in NNW 4.6 mph 3.3 mph 93% 0 in 0.00 W/m2
21:19 33.6 °F 31.8 °F 30.14 in NNW 4.6 mph 3.9 mph 93% 0 in 0.00 W/m2
21:24 33.6 °F 31.8 °F 30.14 in NNW 4.6 mph 3.2 mph 93% 0 in 0.00 W/m2
21:29 33.5 °F 31.7 °F 30.13 in North 4 mph 3.5 mph 93% 0 in 0.00 W/m2
21:35 33.3 °F 31.5 °F 30.13 in North 4 mph 3.1 mph 93% 0 in 0.00 W/m2
21:39 33.3 °F 31.5 °F 30.13 in North 4 mph 2.6 mph 93% 0 in 0.00 W/m2
21:44 33.2 °F 31.4 °F 30.13 in North 3.5 mph 1.6 mph 93% 0 in 0.00 W/m2
21:49 33 °F 31.2 °F 30.13 in North 3.5 mph 1.5 mph 93% 0 in 0.00 W/m2
21:54 33 °F 31.2 °F 30.13 in North 3.5 mph 1.3 mph 93% 0 in 0.00 W/m2
21:59 33.3 °F 31.5 °F 30.13 in NNW 3.5 mph 1.6 mph 93% 0 in 0.00 W/m2
22:04 33.4 °F 31.6 °F 30.13 in NNW 6 mph 3.1 mph 93% 0 in 0.00 W/m2
22:09 33.7 °F 32.2 °F 30.13 in NNW 6 mph 4.7 mph 94% 0 in 0.00 W/m2
22:14 33.9 °F 32.4 °F 30.13 in NNW 7 mph 4.6 mph 94% 0 in 0.00 W/m2
22:19 33.8 °F 32 °F 30.13 in NNW 6.9 mph 5.3 mph 93% 0 in 0.00 W/m2
22:25 33.6 °F 31.8 °F 30.13 in NNW 5.8 mph 4.2 mph 93% 0 in 0.00 W/m2
22:29 33.6 °F 32.1 °F 30.13 in NNW 4.6 mph 3.9 mph 94% 0 in 0.00 W/m2
22:34 33.5 °F 31.7 °F 30.13 in NNW 6 mph 4.4 mph 93% 0 in 0.00 W/m2
22:40 33.5 °F 31.7 °F 30.13 in North 5.8 mph 4.3 mph 93% 0 in 0.00 W/m2
22:44 33.1 °F 31.3 °F 30.12 in North 4 mph 3.3 mph 93% 0 in 0.00 W/m2
22:49 32.9 °F 31.1 °F 30.13 in NNE 3.5 mph 3.7 mph 93% 0 in 0.00 W/m2
22:54 32.7 °F 30.9 °F 30.12 in North 4.6 mph 4.1 mph 93% 0 in 0.00 W/m2
22:59 32.9 °F 31.1 °F 30.12 in North 6.9 mph 4.9 mph 93% 0 in 0.00 W/m2
23:04 33 °F 31.2 °F 30.12 in North 5.8 mph 3.7 mph 93% 0 in 0.00 W/m2
23:09 32.9 °F 31.1 °F 30.13 in NNW 5 mph 3.9 mph 93% 0 in 0.00 W/m2
23:14 33.1 °F 31.6 °F 30.13 in NNW 4.6 mph 3.8 mph 94% 0 in 0.00 W/m2
23:19 33.4 °F 31.9 °F 30.13 in NNW 5.8 mph 4.6 mph 94% 0 in 0.00 W/m2
23:24 33.5 °F 32 °F 30.13 in NNW 5.8 mph 4.3 mph 94% 0 in 0.00 W/m2
23:29 33.4 °F 31.9 °F 30.13 in NW 6 mph 4.7 mph 94% 0 in 0.00 W/m2
23:34 33.2 °F 31.7 °F 30.12 in NNW 4.6 mph 4.4 mph 94% 0 in 0.00 W/m2
23:39 33.2 °F 31.7 °F 30.13 in North 5.8 mph 4.5 mph 94% 0 in 0.00 W/m2
23:45 33.1 °F 31.6 °F 30.12 in NNW 4 mph 3.3 mph 94% 0 in 0.00 W/m2
23:49 32.8 °F 31 °F 30.12 in North 4 mph 3.1 mph 93% 0 in 0.00 W/m2
23:54 32.6 °F 30.8 °F 30.12 in North 5.8 mph 4 mph 93% 0 in 0.00 W/m2
23:59 32.8 °F 31.3 °F 30.12 in North 5.8 mph 3.4 mph 94% 0 in 0.00 W/m2
Bourbonnais, Illinois, USA
Compliments of Weather Underground - 4 mb